Time;durP1;ratioP1;P1;durP2;ratioP2;P2;SDS_P1;SDS_P2;PMS_P1;PMS_P2;Temp;Humidity;BMP_temperature;BMP_pressure;BME280_temperature;BME280_humidity;BME280_pressure;Samples;Min_cycle;Max_cycle;Signal;HPM_P1;HPM_P2
2022/03/05 00:00:30;;;;;;;32.37;18.57;;;2.30;99.90;;;;;;5018771;28;21036;-39
2022/03/05 00:02:56;;;;;;;35.00;18.07;;;2.10;99.90;;;;;;5020531;28;20190;-39
2022/03/05 00:05:22;;;;;;;30.77;18.20;;;2.10;99.90;;;;;;5022144;28;20445;-39
2022/03/05 00:07:47;;;;;;;31.10;17.50;;;2.10;99.90;;;;;;5026710;28;20432;-39
2022/03/05 00:10:14;;;;;;;35.63;18.97;;;2.00;99.90;;;;;;5025997;28;20289;-40
2022/03/05 00:12:40;;;;;;;31.40;17.97;;;1.90;99.90;;;;;;5025883;28;20236;-39
2022/03/05 00:15:06;;;;;;;27.90;17.50;;;1.90;99.90;;;;;;5023639;28;20427;-39
2022/03/05 00:17:32;;;;;;;32.03;18.20;;;1.80;99.90;;;;;;5021494;28;20850;-39
2022/03/05 00:19:57;;;;;;;30.63;17.40;;;1.80;99.90;;;;;;5026204;28;20479;-39
2022/03/05 00:22:23;;;;;;;34.70;18.47;;;1.80;99.90;;;;;;5038417;28;20197;-39
2022/03/05 00:24:49;;;;;;;30.77;17.53;;;1.80;99.90;;;;;;5037179;28;20402;-39
2022/03/05 00:27:16;;;;;;;30.17;17.63;;;1.70;99.90;;;;;;5046688;28;20606;-39
2022/03/05 00:29:42;;;;;;;29.80;18.27;;;1.60;99.90;;;;;;5041417;28;20429;-40
2022/03/05 00:32:08;;;;;;;31.67;18.93;;;1.80;99.90;;;;;;5016378;28;20526;-39
2022/03/05 00:34:34;;;;;;;33.17;17.67;;;1.70;99.90;;;;;;5026855;28;20213;-40
2022/03/05 00:36:59;;;;;;;29.67;17.60;;;1.60;99.90;;;;;;5026733;28;20420;-40
2022/03/05 00:39:25;;;;;;;29.73;17.60;;;1.60;99.90;;;;;;5026740;28;20174;-40
2022/03/05 00:41:50;;;;;;;31.57;18.67;;;1.60;99.90;;;;;;5024771;28;20202;-40
2022/03/05 00:44:16;;;;;;;31.47;18.30;;;1.80;99.90;;;;;;5026597;28;20222;-39
2022/03/05 00:46:42;;;;;;;33.80;17.97;;;1.80;99.90;;;;;;5015743;28;20201;-39
2022/03/05 00:49:08;;;;;;;32.97;19.20;;;1.80;99.90;;;;;;5026865;28;20555;-40
2022/03/05 00:51:34;;;;;;;28.80;16.67;;;2.00;99.90;;;;;;5026184;28;20597;-39
2022/03/05 00:53:59;;;;;;;31.37;17.27;;;2.00;99.90;;;;;;5025518;28;20433;-39
2022/03/05 00:56:25;;;;;;;30.80;17.30;;;2.00;99.90;;;;;;5026805;28;20456;-39
2022/03/05 00:58:51;;;;;;;30.27;18.77;;;1.80;99.90;;;;;;5025782;28;20205;-39
2022/03/05 01:01:16;;;;;;;29.70;17.40;;;1.70;99.90;;;;;;5015551;28;20601;-39
2022/03/05 01:03:43;;;;;;;31.30;17.60;;;1.70;99.90;;;;;;5024175;28;20222;-39
2022/03/05 01:06:08;;;;;;;36.60;18.50;;;1.70;99.90;;;;;;5026918;28;20255;-39
2022/03/05 01:08:34;;;;;;;32.03;18.10;;;1.70;99.90;;;;;;5029251;28;20441;-39
2022/03/05 01:11:00;;;;;;;32.37;18.07;;;1.60;99.90;;;;;;5029880;28;20206;-39
2022/03/05 01:13:26;;;;;;;30.60;17.60;;;1.60;99.90;;;;;;5029921;28;20452;-39
2022/03/05 01:15:52;;;;;;;34.27;18.60;;;1.60;99.90;;;;;;5023562;28;20457;-41
2022/03/05 01:18:17;;;;;;;29.20;16.73;;;1.80;99.90;;;;;;5027302;28;20213;-39
2022/03/05 01:20:43;;;;;;;29.40;18.10;;;1.50;99.90;;;;;;5029697;28;20182;-40
2022/03/05 01:23:09;;;;;;;31.83;16.73;;;1.60;99.90;;;;;;5047494;28;20223;-39
2022/03/05 01:25:34;;;;;;;33.73;17.67;;;1.30;99.90;;;;;;5044041;28;20185;-39
2022/03/05 01:28:00;;;;;;;30.83;16.10;;;1.40;99.90;;;;;;5049601;28;20653;-39
2022/03/05 01:30:26;;;;;;;31.80;17.73;;;1.50;99.90;;;;;;5039816;28;20222;-39
2022/03/05 01:32:52;;;;;;;26.60;15.87;;;1.60;99.90;;;;;;5026168;28;20186;-39
2022/03/05 01:35:18;;;;;;;30.90;16.63;;;1.50;99.90;;;;;;5028420;28;20417;-39
2022/03/05 01:37:44;;;;;;;31.37;16.70;;;1.60;99.90;;;;;;5030138;28;20225;-39
2022/03/05 01:40:10;;;;;;;29.17;17.07;;;1.50;99.90;;;;;;5029173;28;20842;-39
2022/03/05 01:42:36;;;;;;;30.83;18.27;;;1.50;99.90;;;;;;5029533;28;20957;-39
2022/03/05 01:45:02;;;;;;;34.90;18.70;;;1.50;99.90;;;;;;5029418;28;20465;-39
2022/03/05 01:47:28;;;;;;;28.67;17.80;;;1.40;99.90;;;;;;5015605;28;20572;-40
2022/03/05 01:49:54;;;;;;;29.67;17.00;;;1.70;99.90;;;;;;5028716;28;20425;-39
2022/03/05 01:52:19;;;;;;;34.23;18.30;;;1.70;99.90;;;;;;5029716;28;20193;-39
2022/03/05 01:54:45;;;;;;;34.07;17.93;;;1.80;99.90;;;;;;5028514;28;20197;-39
2022/03/05 01:57:12;;;;;;;29.50;17.13;;;1.80;99.90;;;;;;5027539;28;20673;-39
2022/03/05 01:59:38;;;;;;;33.30;17.60;;;1.50;99.90;;;;;;5028965;28;20542;-39
2022/03/05 02:02:04;;;;;;;30.77;17.70;;;1.50;99.90;;;;;;5019020;28;20459;-39
2022/03/05 02:04:30;;;;;;;31.40;17.83;;;1.60;99.90;;;;;;5028968;28;20425;-39
2022/03/05 02:06:55;;;;;;;27.53;15.07;;;1.40;99.90;;;;;;5029409;28;20439;-39
2022/03/05 02:09:21;;;;;;;35.10;17.53;;;1.30;99.90;;;;;;5029244;28;20823;-39
2022/03/05 02:11:48;;;;;;;25.33;15.87;;;1.40;99.90;;;;;;5028085;28;20226;-39
2022/03/05 02:14:18;;;;;;;30.17;17.20;;;1.30;99.90;;;;;;5029090;28;20186;-39
2022/03/05 02:16:45;;;;;;;28.37;15.73;;;1.30;99.90;;;;;;5020328;28;21029;-39
2022/03/05 02:19:10;;;;;;;27.30;16.50;;;1.20;99.90;;;;;;5022972;28;20434;-39
2022/03/05 02:21:36;;;;;;;33.87;17.97;;;1.20;99.90;;;;;;5030423;28;20432;-39
2022/03/05 02:24:02;;;;;;;32.00;18.30;;;1.00;99.90;;;;;;5048468;28;20189;-39
2022/03/05 02:26:27;;;;;;;32.00;17.53;;;1.10;99.90;;;;;;5046139;28;20558;-39
2022/03/05 02:28:53;;;;;;;33.30;17.30;;;1.10;99.90;;;;;;5047550;28;20207;-39
2022/03/05 02:31:19;;;;;;;33.73;17.83;;;0.90;99.90;;;;;;5036363;28;20226;-39
2022/03/05 02:33:45;;;;;;;27.40;16.23;;;0.80;99.90;;;;;;5023005;28;20275;-39
2022/03/05 02:36:11;;;;;;;32.80;18.20;;;0.90;99.90;;;;;;5028466;28;20186;-39
2022/03/05 02:38:37;;;;;;;32.27;17.40;;;1.00;99.90;;;;;;5029066;28;20521;-39
2022/03/05 02:41:03;;;;;;;31.73;17.70;;;0.90;99.90;;;;;;5026327;28;20453;-39
2022/03/05 02:43:29;;;;;;;29.50;17.13;;;0.90;99.90;;;;;;5028688;28;20852;-39
2022/03/05 02:45:55;;;;;;;29.03;16.50;;;1.20;99.90;;;;;;5024776;28;20431;-39
2022/03/05 02:48:21;;;;;;;31.97;17.13;;;1.30;99.90;;;;;;5020485;28;20436;-39
2022/03/05 02:50:48;;;;;;;32.27;17.33;;;1.20;99.90;;;;;;5024612;28;21049;-39
2022/03/05 02:53:15;;;;;;;27.13;16.00;;;1.10;99.90;;;;;;5028158;28;20786;-39
2022/03/05 02:55:43;;;;;;;31.93;17.57;;;1.30;99.90;;;;;;5028059;28;20418;-39
2022/03/05 02:58:09;;;;;;;30.77;17.43;;;1.30;99.90;;;;;;5028018;28;20536;-40
2022/03/05 03:00:35;;;;;;;26.67;16.30;;;1.50;99.90;;;;;;5027801;28;20509;-39
2022/03/05 03:03:02;;;;;;;27.37;15.40;;;1.20;99.90;;;;;;5018687;28;20186;-39
2022/03/05 03:05:29;;;;;;;31.87;16.60;;;1.20;99.90;;;;;;5027968;28;21071;-39
2022/03/05 03:07:54;;;;;;;30.90;17.93;;;1.10;99.90;;;;;;5028059;28;20496;-39
2022/03/05 03:10:21;;;;;;;27.53;15.97;;;1.40;99.90;;;;;;5027308;28;20272;-39
2022/03/05 03:12:46;;;;;;;33.20;16.80;;;1.20;99.90;;;;;;5027352;28;20185;-40
2022/03/05 03:15:14;;;;;;;28.73;15.93;;;1.40;99.90;;;;;;5026803;28;20421;-39
2022/03/05 03:17:45;;;;;;;30.30;16.37;;;1.40;99.90;;;;;;5015931;28;20187;-39
2022/03/05 03:20:13;;;;;;;33.33;16.90;;;1.50;99.90;;;;;;5027339;28;20421;-39
2022/03/05 03:22:39;;;;;;;27.50;15.87;;;1.40;99.90;;;;;;5027368;28;20440;-39
2022/03/05 03:25:05;;;;;;;27.13;13.73;;;1.40;99.90;;;;;;5027046;28;20428;-39
2022/03/05 03:27:31;;;;;;;30.30;16.70;;;1.20;99.90;;;;;;5028072;28;20421;-38
2022/03/05 03:29:57;;;;;;;26.50;15.30;;;1.30;99.90;;;;;;5026594;28;20449;-39
2022/03/05 03:32:23;;;;;;;28.90;15.47;;;1.40;99.90;;;;;;5016885;28;20179;-39
2022/03/05 03:34:49;;;;;;;25.50;14.47;;;1.20;99.90;;;;;;5027344;28;20924;-39
2022/03/05 03:37:15;;;;;;;26.73;15.63;;;1.40;99.90;;;;;;5027425;28;20182;-39
2022/03/05 03:39:41;;;;;;;27.40;14.90;;;1.30;99.90;;;;;;5025471;28;20429;-39
2022/03/05 03:42:07;;;;;;;27.17;14.63;;;1.50;99.90;;;;;;5026892;28;20427;-39
2022/03/05 03:44:33;;;;;;;29.50;16.00;;;1.20;99.90;;;;;;5027130;28;20244;-39
2022/03/05 03:46:58;;;;;;;26.67;14.77;;;1.30;99.90;;;;;;5022052;28;20430;-39
2022/03/05 03:49:24;;;;;;;30.97;14.90;;;1.50;99.90;;;;;;5025133;28;20191;-39
2022/03/05 03:51:50;;;;;;;25.63;14.37;;;1.50;99.90;;;;;;5026570;28;20472;-39
2022/03/05 03:54:16;;;;;;;27.03;13.80;;;1.70;99.90;;;;;;5025659;28;20186;-39
2022/03/05 03:56:42;;;;;;;25.23;12.77;;;1.50;99.90;;;;;;5027308;28;20198;-39
2022/03/05 03:59:08;;;;;;;25.97;14.17;;;1.20;99.90;;;;;;5027199;28;20819;-39
2022/03/05 04:01:34;;;;;;;26.00;15.90;;;1.20;99.90;;;;;;5023513;28;20900;-39
2022/03/05 04:04:00;;;;;;;28.90;16.13;;;0.90;99.90;;;;;;5021175;28;20523;-39
2022/03/05 04:06:26;;;;;;;27.77;15.20;;;1.00;99.90;;;;;;5025565;28;20216;-39
2022/03/05 04:09:11;;;;;;;33.37;15.90;;;1.10;99.90;;;;;;5015387;28;20798;-39
2022/03/05 04:11:36;;;;;;;31.77;14.90;;;0.90;99.90;;;;;;5025098;28;20464;-39
2022/03/05 04:14:02;;;;;;;28.77;15.40;;;0.90;99.90;;;;;;5027156;28;20210;-39
2022/03/05 04:16:28;;;;;;;27.60;15.03;;;1.10;99.90;;;;;;5025082;28;20246;-39
2022/03/05 04:18:53;;;;;;;28.03;14.77;;;1.20;99.90;;;;;;5020941;28;20181;-39
2022/03/05 04:21:19;;;;;;;24.90;14.00;;;1.20;99.90;;;;;;5025916;28;20198;-39
2022/03/05 04:23:45;;;;;;;29.13;15.23;;;1.10;99.90;;;;;;5025952;28;20278;-40
2022/03/05 04:26:10;;;;;;;31.20;16.20;;;1.00;99.90;;;;;;5025341;28;20532;-39
2022/03/05 04:28:36;;;;;;;28.97;15.90;;;0.90;99.90;;;;;;5025447;28;20721;-39
2022/03/05 04:31:02;;;;;;;31.80;16.50;;;0.90;99.90;;;;;;5026361;28;20206;-39
2022/03/05 04:33:28;;;;;;;26.20;14.87;;;1.10;99.90;;;;;;5017770;28;20194;-39
2022/03/05 04:35:54;;;;;;;26.10;14.13;;;0.90;99.90;;;;;;5028380;28;20460;-39
2022/03/05 04:38:20;;;;;;;30.30;15.77;;;1.00;99.90;;;;;;5030330;28;20421;-39
2022/03/05 04:40:45;;;;;;;25.53;15.13;;;1.10;99.90;;;;;;5026223;28;20199;-39
2022/03/05 04:43:11;;;;;;;28.23;15.43;;;0.90;99.90;;;;;;5029381;28;20194;-39
2022/03/05 04:45:37;;;;;;;28.00;14.63;;;1.00;99.90;;;;;;5030720;28;20756;-39
2022/03/05 04:48:03;;;;;;;27.80;14.10;;;1.10;99.90;;;;;;5018784;28;20191;-39
2022/03/05 04:50:29;;;;;;;26.37;13.87;;;1.30;99.90;;;;;;5027241;28;20254;-39
2022/03/05 04:52:54;;;;;;;23.17;13.47;;;1.50;99.90;;;;;;5030482;28;20456;-39
2022/03/05 04:55:20;;;;;;;27.87;14.10;;;1.50;99.90;;;;;;5029459;28;20197;-39
2022/03/05 04:57:46;;;;;;;26.53;13.57;;;1.30;99.90;;;;;;5030275;28;20225;-39
2022/03/05 05:00:12;;;;;;;26.60;13.50;;;1.50;99.90;;;;;;5031088;28;20187;-39
2022/03/05 05:02:37;;;;;;;27.63;13.60;;;1.50;99.90;;;;;;5023712;28;20611;-39
2022/03/05 05:05:05;;;;;;;27.53;14.87;;;1.60;99.90;;;;;;5025165;28;20510;-39
2022/03/05 05:07:31;;;;;;;26.63;13.90;;;1.60;99.90;;;;;;5028824;28;20181;-39
2022/03/05 05:09:57;;;;;;;23.40;13.50;;;1.60;99.90;;;;;;5029864;28;20429;-39
2022/03/05 05:12:23;;;;;;;25.20;13.77;;;1.90;99.90;;;;;;5030324;28;20456;-39
2022/03/05 05:14:48;;;;;;;25.03;13.30;;;2.00;99.90;;;;;;5030195;28;20679;-39
2022/03/05 05:17:14;;;;;;;28.90;13.93;;;1.80;99.90;;;;;;5025727;28;20438;-39
2022/03/05 05:19:40;;;;;;;26.23;14.10;;;2.10;99.90;;;;;;5027933;28;20417;-40
2022/03/05 05:22:06;;;;;;;25.50;13.67;;;2.10;99.90;;;;;;5030095;28;20193;-39
2022/03/05 05:24:36;;;;;;;26.60;14.30;;;1.80;99.90;;;;;;5027553;28;20206;-39
2022/03/05 05:27:02;;;;;;;26.13;13.60;;;1.90;99.90;;;;;;5033056;28;20897;-39
2022/03/05 05:29:28;;;;;;;27.23;13.40;;;2.20;99.90;;;;;;5028415;28;20420;-39
2022/03/05 05:31:55;;;;;;;29.40;14.30;;;2.20;99.90;;;;;;5028143;28;20461;-40
2022/03/05 05:34:21;;;;;;;25.30;13.30;;;2.00;99.90;;;;;;5021984;28;20210;-39
2022/03/05 05:36:47;;;;;;;24.60;14.03;;;2.00;99.90;;;;;;5028599;28;20413;-39
2022/03/05 05:39:15;;;;;;;24.80;12.67;;;1.90;99.90;;;;;;5029561;28;20427;-39
2022/03/05 05:41:41;;;;;;;25.47;13.40;;;2.00;99.90;;;;;;5029084;28;20475;-39
2022/03/05 05:44:09;;;;;;;27.67;13.93;;;2.00;99.90;;;;;;5029434;28;20456;-39
2022/03/05 05:46:35;;;;;;;25.97;14.10;;;1.90;99.90;;;;;;5029435;28;20519;-39
2022/03/05 05:49:01;;;;;;;25.53;13.90;;;1.80;99.90;;;;;;5019126;28;20439;-40
2022/03/05 05:51:28;;;;;;;24.07;12.43;;;2.10;99.90;;;;;;5027655;28;20465;-39
2022/03/05 05:53:55;;;;;;;26.30;13.57;;;1.80;99.90;;;;;;5029575;28;20646;-38
2022/03/05 05:56:21;;;;;;;27.77;13.07;;;1.90;99.90;;;;;;5028422;28;20445;-39
2022/03/05 05:58:50;;;;;;;23.70;12.13;;;2.00;99.90;;;;;;5029332;28;20479;-39
2022/03/05 06:01:16;;;;;;;27.73;12.63;;;1.90;99.90;;;;;;5028802;28;20429;-39
2022/03/05 06:03:44;;;;;;;23.30;12.80;;;1.90;99.90;;;;;;5025948;28;20822;-39
2022/03/05 06:06:11;;;;;;;26.90;14.90;;;2.10;99.90;;;;;;5029171;28;20422;-39
2022/03/05 06:08:37;;;;;;;29.60;13.47;;;1.90;99.90;;;;;;5029198;28;20425;-40
2022/03/05 06:11:03;;;;;;;24.17;12.70;;;2.10;99.90;;;;;;5028433;28;20808;-39
2022/03/05 06:13:28;;;;;;;25.03;12.40;;;2.10;99.90;;;;;;5028987;28;20186;-39
2022/03/05 06:15:54;;;;;;;26.13;13.63;;;2.20;99.90;;;;;;5029393;28;20508;-39
2022/03/05 06:18:20;;;;;;;22.13;13.30;;;2.20;99.90;;;;;;5024498;28;20804;-39
2022/03/05 06:20:45;;;;;;;19.70;11.23;;;2.00;99.90;;;;;;5010255;28;20182;-39
2022/03/05 06:23:11;;;;;;;22.87;13.40;;;2.00;99.90;;;;;;5029183;28;20285;-40
2022/03/05 06:25:37;;;;;;;24.40;12.40;;;2.10;99.90;;;;;;5028052;28;20205;-39
2022/03/05 06:28:03;;;;;;;22.00;12.33;;;2.20;99.90;;;;;;5028631;28;20684;-39
2022/03/05 06:30:29;;;;;;;22.27;12.90;;;2.10;99.90;;;;;;5028505;28;20268;-39
2022/03/05 06:32:54;;;;;;;24.83;12.60;;;2.20;99.90;;;;;;5018710;28;20438;-39
2022/03/05 06:35:20;;;;;;;28.60;12.50;;;2.10;99.90;;;;;;5024713;28;20278;-39
2022/03/05 06:37:46;;;;;;;23.63;12.23;;;2.20;99.90;;;;;;5031846;28;20181;-39
2022/03/05 06:40:12;;;;;;;21.27;11.70;;;2.10;99.90;;;;;;5048587;28;20268;-39
2022/03/05 06:42:39;;;;;;;21.43;12.73;;;2.20;99.90;;;;;;5031612;28;20185;-39
2022/03/05 06:45:07;;;;;;;25.80;12.70;;;2.20;99.90;;;;;;5048729;28;20424;-39
2022/03/05 06:47:33;;;;;;;23.17;12.03;;;2.30;99.90;;;;;;5044614;28;20432;-39
2022/03/05 06:49:58;;;;;;;23.17;12.33;;;2.30;99.90;;;;;;5025241;28;20787;-39
2022/03/05 06:52:24;;;;;;;25.77;13.70;;;2.50;99.90;;;;;;5028079;28;20243;-39
2022/03/05 06:54:50;;;;;;;28.77;12.93;;;2.40;99.90;;;;;;5026974;28;20186;-39
2022/03/05 06:57:15;;;;;;;21.10;11.73;;;2.50;99.90;;;;;;5026576;28;20570;-39
2022/03/05 06:59:41;;;;;;;23.30;13.03;;;2.50;99.90;;;;;;5027773;28;20201;-39
2022/03/05 07:02:07;;;;;;;21.47;11.50;;;2.30;99.90;;;;;;5027650;28;20190;-39
2022/03/05 07:04:33;;;;;;;24.57;12.30;;;2.50;99.90;;;;;;5018617;28;20625;-39
2022/03/05 07:06:59;;;;;;;23.40;12.67;;;2.60;99.90;;;;;;5028203;28;20460;-39
2022/03/05 07:09:24;;;;;;;17.67;10.70;;;2.40;99.90;;;;;;5028071;28;20524;-39
2022/03/05 07:11:50;;;;;;;23.40;13.30;;;2.60;99.90;;;;;;5027302;28;20213;-39
2022/03/05 07:14:16;;;;;;;22.40;12.57;;;2.70;99.90;;;;;;5027044;28;20194;-39
2022/03/05 07:16:41;;;;;;;25.60;12.87;;;2.70;99.90;;;;;;5028240;28;20194;-40
2022/03/05 07:19:07;;;;;;;23.30;12.07;;;2.70;99.90;;;;;;5017164;28;20198;-39
2022/03/05 07:21:33;;;;;;;25.27;13.20;;;2.70;99.90;;;;;;5025224;28;20661;-39
2022/03/05 07:23:59;;;;;;;20.40;12.50;;;2.70;99.90;;;;;;5026754;28;20429;-39
2022/03/05 07:26:25;;;;;;;19.83;12.27;;;3.00;99.90;;;;;;5027499;28;20767;-39
2022/03/05 07:28:51;;;;;;;22.20;12.50;;;2.90;99.90;;;;;;5027782;28;20617;-39
2022/03/05 07:31:17;;;;;;;19.93;12.50;;;3.10;99.90;;;;;;5027336;28;20540;-39
2022/03/05 07:33:43;;;;;;;23.40;13.07;;;3.20;99.90;;;;;;5022328;28;20479;-39
2022/03/05 07:36:08;;;;;;;23.23;13.57;;;3.40;99.90;;;;;;5027652;28;20199;-39
2022/03/05 07:38:34;;;;;;;23.03;13.00;;;3.40;99.90;;;;;;5024842;28;20612;-39
2022/03/05 07:41:00;;;;;;;19.17;12.07;;;3.70;99.90;;;;;;5028763;28;20198;-39
2022/03/05 07:43:26;;;;;;;21.80;13.07;;;3.80;99.90;;;;;;5022122;28;20946;-39
2022/03/05 07:45:52;;;;;;;20.73;11.63;;;4.20;99.90;;;;;;5027105;28;20182;-39
2022/03/05 07:48:21;;;;;;;21.10;12.70;;;4.20;99.90;;;;;;5021707;28;20434;-39
2022/03/05 07:50:51;;;;;;;18.43;11.50;;;4.40;99.90;;;;;;5022724;28;20333;-39
2022/03/05 07:53:17;;;;;;;22.00;12.80;;;4.70;99.90;;;;;;5025933;28;20858;-39
2022/03/05 07:55:43;;;;;;;24.57;12.83;;;4.80;99.90;;;;;;5026736;28;20608;-39
2022/03/05 07:58:08;;;;;;;19.93;12.07;;;5.40;99.90;;;;;;5027047;28;20857;-39
2022/03/05 08:00:34;;;;;;;24.90;13.20;;;5.40;99.90;;;;;;5030849;28;20189;-39
2022/03/05 08:03:00;;;;;;;27.33;13.60;;;5.60;99.90;;;;;;5026689;28;20486;-39
2022/03/05 08:05:26;;;;;;;26.40;14.00;;;5.70;99.80;;;;;;5019280;28;20281;-39
2022/03/05 08:07:54;;;;;;;21.77;12.37;;;5.80;99.30;;;;;;5025624;28;20186;-39
2022/03/05 08:10:20;;;;;;;20.80;12.90;;;6.20;98.80;;;;;;5030113;28;20264;-40
2022/03/05 08:12:46;;;;;;;22.43;12.73;;;6.30;98.90;;;;;;5024341;28;20440;-39
2022/03/05 08:15:12;;;;;;;19.90;11.97;;;6.40;98.60;;;;;;5026181;28;20908;-39
2022/03/05 08:17:51;;;;;;;23.00;12.90;;;6.40;98.30;;;;;;5025253;28;20538;-39
2022/03/05 08:20:18;;;;;;;20.87;11.90;;;6.70;97.80;;;;;;5016353;28;20943;-39
2022/03/05 08:22:43;;;;;;;18.87;12.00;;;6.90;98.10;;;;;;5026496;28;20479;-39
2022/03/05 08:25:09;;;;;;;20.70;13.03;;;7.00;97.30;;;;;;5025508;28;20505;-39
2022/03/05 08:27:35;;;;;;;23.20;12.77;;;7.40;96.90;;;;;;5026479;28;20255;-39
2022/03/05 08:30:02;;;;;;;18.60;11.60;;;7.20;96.20;;;;;;5027142;28;20194;-39
2022/03/05 08:32:28;;;;;;;21.17;12.90;;;7.40;96.30;;;;;;5028007;28;20241;-39
2022/03/05 08:34:53;;;;;;;18.63;11.00;;;7.40;95.60;;;;;;5020943;28;21551;-39
2022/03/05 08:37:19;;;;;;;21.30;12.33;;;7.60;95.70;;;;;;5024892;28;20193;-39
2022/03/05 08:39:44;;;;;;;22.07;13.93;;;7.70;95.60;;;;;;5025637;28;20189;-39
2022/03/05 08:42:10;;;;;;;22.63;11.10;;;7.90;95.70;;;;;;5026360;28;20273;-40
2022/03/05 08:44:36;;;;;;;21.00;12.70;;;7.80;94.80;;;;;;5026568;28;20198;-39
2022/03/05 08:47:02;;;;;;;20.70;12.93;;;7.80;94.50;;;;;;5026404;28;20197;-39
2022/03/05 08:49:27;;;;;;;21.50;12.17;;;8.10;94.70;;;;;;5021018;28;20209;-40
2022/03/05 08:51:53;;;;;;;22.57;12.43;;;8.20;94.80;;;;;;5024774;28;20489;-40
2022/03/05 08:54:20;;;;;;;20.30;12.70;;;8.50;94.10;;;;;;5026236;28;20193;-39
2022/03/05 08:56:47;;;;;;;22.63;13.77;;;8.30;93.20;;;;;;5026694;28;20726;-40
2022/03/05 08:59:12;;;;;;;20.83;13.07;;;8.50;93.30;;;;;;5025139;28;20428;-39
2022/03/05 09:01:38;;;;;;;22.17;13.67;;;8.40;93.30;;;;;;5026040;28;20429;-39
2022/03/05 09:04:05;;;;;;;19.77;12.63;;;8.50;93.00;;;;;;5019371;28;20434;-39
2022/03/05 09:06:30;;;;;;;22.20;13.27;;;8.40;93.30;;;;;;5020937;28;20313;-39
2022/03/05 09:08:57;;;;;;;20.50;12.87;;;8.70;92.80;;;;;;5026164;28;20528;-39
2022/03/05 09:11:23;;;;;;;21.77;13.27;;;8.80;92.70;;;;;;5026064;28;20723;-39
2022/03/05 09:13:49;;;;;;;19.73;12.03;;;9.00;92.90;;;;;;5026556;28;20947;-39
2022/03/05 09:16:15;;;;;;;20.50;13.63;;;9.00;92.50;;;;;;5026920;28;20683;-39
2022/03/05 09:18:41;;;;;;;20.50;13.10;;;9.20;92.10;;;;;;5024820;28;20432;-39
2022/03/05 09:21:07;;;;;;;19.27;13.50;;;9.10;91.70;;;;;;5014061;28;20417;-40
2022/03/05 09:23:33;;;;;;;18.60;12.57;;;9.10;91.90;;;;;;5024550;28;20421;-39
2022/03/05 09:25:59;;;;;;;20.90;12.67;;;9.40;91.40;;;;;;5026388;28;20456;-39
2022/03/05 09:28:26;;;;;;;17.83;11.60;;;9.20;91.90;;;;;;5027980;28;20471;-39
2022/03/05 09:30:51;;;;;;;18.30;12.03;;;9.50;91.00;;;;;;5029582;28;20213;-39
2022/03/05 09:33:17;;;;;;;23.57;12.57;;;9.40;90.80;;;;;;5028983;28;20596;-39
2022/03/05 09:35:44;;;;;;;19.40;12.77;;;9.70;90.70;;;;;;5018447;28;20181;-39
2022/03/05 09:38:10;;;;;;;21.70;12.83;;;9.70;90.60;;;;;;5030019;28;20426;-39
2022/03/05 09:40:35;;;;;;;15.50;11.90;;;9.90;89.10;;;;;;5029092;28;20433;-40
2022/03/05 09:43:02;;;;;;;21.60;12.93;;;10.10;87.60;;;;;;5029688;28;20479;-39
2022/03/05 09:45:28;;;;;;;19.10;11.83;;;10.20;86.70;;;;;;5029703;28;20230;-39
2022/03/05 09:47:56;;;;;;;23.13;13.37;;;10.20;86.00;;;;;;5029828;28;20916;-39
2022/03/05 09:50:28;;;;;;;20.87;12.37;;;10.20;84.60;;;;;;5019306;28;20442;-40
2022/03/05 09:52:55;;;;;;;19.83;12.27;;;10.30;84.40;;;;;;5029620;28;20958;-40
2022/03/05 09:55:21;;;;;;;18.90;12.30;;;10.40;84.50;;;;;;5029515;28;20508;-40
2022/03/05 09:57:46;;;;;;;18.77;12.43;;;10.60;84.50;;;;;;5028359;28;20532;-39
2022/03/05 10:00:12;;;;;;;17.43;11.50;;;10.70;82.10;;;;;;5027433;28;20186;-39
2022/03/05 10:02:38;;;;;;;20.07;12.97;;;11.00;81.80;;;;;;5029302;28;20821;-39
2022/03/05 10:05:26;;;;;;;15.03;10.67;;;10.90;80.90;;;;;;5019918;28;20442;-39
2022/03/05 10:08:08;;;;;;;16.73;11.47;;;10.90;78.40;;;;;;5024500;28;20174;-39
2022/03/05 10:10:46;;;;;;;17.10;11.53;;;11.00;77.40;;;;;;5017289;28;20605;-39
2022/03/05 10:13:31;;;;;;;18.03;11.33;;;11.20;79.50;;;;;;5044444;28;20606;-40
2022/03/05 10:16:28;;;;;;;17.50;11.90;;;11.50;77.50;;;;;;5047680;28;20421;-40
2022/03/05 10:18:55;;;;;;;18.70;12.20;;;11.40;76.50;;;;;;5031232;28;20511;-39
2022/03/05 10:21:29;;;;;;;14.77;10.53;;;11.40;74.80;;;;;;5018043;28;20730;-40
2022/03/05 10:24:09;;;;;;;15.63;10.93;;;11.50;73.80;;;;;;5020706;28;20420;-40
2022/03/05 10:26:55;;;;;;;17.47;11.73;;;11.60;70.30;;;;;;5028919;28;20844;-40
2022/03/05 10:29:23;;;;;;;17.93;12.20;;;11.70;70.20;;;;;;5029563;28;20939;-39
2022/03/05 10:31:58;;;;;;;15.43;10.80;;;11.60;69.40;;;;;;5028087;28;20637;-39
2022/03/05 10:34:23;;;;;;;14.27;10.67;;;11.80;69.60;;;;;;5026248;28;20828;-43
2022/03/05 10:37:00;;;;;;;14.70;10.20;;;11.90;66.60;;;;;;5019982;28;20424;-40
2022/03/05 10:39:27;;;;;;;18.87;11.20;;;12.10;65.80;;;;;;5006964;28;20187;-40
2022/03/05 10:41:54;;;;;;;16.53;10.03;;;11.90;64.60;;;;;;5019001;28;20425;-39
2022/03/05 10:44:21;;;;;;;12.33;10.10;;;11.90;62.50;;;;;;5028366;28;20429;-40
2022/03/05 10:46:59;;;;;;;15.30;10.80;;;11.90;63.20;;;;;;5028601;28;20425;-40
2022/03/05 10:49:38;;;;;;;20.43;11.20;;;11.70;64.00;;;;;;5027576;28;20457;-39
2022/03/05 10:52:04;;;;;;;17.70;11.33;;;11.70;62.40;;;;;;5022203;28;20469;-40
2022/03/05 10:54:42;;;;;;;13.67;10.00;;;11.70;63.30;;;;;;5028484;28;20939;-39
2022/03/05 10:57:16;;;;;;;16.10;10.50;;;11.70;62.60;;;;;;5028347;28;20455;-40
2022/03/05 10:59:47;;;;;;;14.23;10.60;;;11.60;63.80;;;;;;5028089;28;20463;-39
2022/03/05 11:02:16;;;;;;;15.33;11.97;;;11.70;62.80;;;;;;5028281;28;20667;-40
2022/03/05 11:04:42;;;;;;;14.63;10.53;;;11.60;61.00;;;;;;5025157;28;20425;-40
2022/03/05 11:07:09;;;;;;;16.80;10.47;;;11.60;62.70;;;;;;5025886;28;20800;-40
2022/03/05 11:09:36;;;;;;;15.73;11.07;;;11.40;63.90;;;;;;5026144;28;20418;-39
2022/03/05 11:12:04;;;;;;;13.87;9.40;;;11.30;61.20;;;;;;5028442;28;20461;-40
2022/03/05 11:14:30;;;;;;;16.27;10.90;;;11.40;63.60;;;;;;5028247;28;20471;-40
2022/03/05 11:16:56;;;;;;;18.90;10.80;;;11.00;62.30;;;;;;5028568;28;20432;-40
2022/03/05 11:19:26;;;;;;;15.03;10.50;;;11.10;62.90;;;;;;5026932;28;20190;-40
2022/03/05 11:21:52;;;;;;;15.80;10.90;;;10.80;61.50;;;;;;5016226;28;20521;-42
2022/03/05 11:24:20;;;;;;;15.30;10.40;;;10.70;61.00;;;;;;5026652;28;20460;-40
2022/03/05 11:26:55;;;;;;;16.40;11.43;;;10.80;61.90;;;;;;5028426;28;20432;-40
2022/03/05 11:29:24;;;;;;;15.57;10.10;;;10.70;60.50;;;;;;5026840;28;20479;-40
2022/03/05 11:31:50;;;;;;;13.87;9.90;;;11.00;62.80;;;;;;5013501;28;20452;-40
2022/03/05 11:34:17;;;;;;;14.47;10.00;;;11.10;61.10;;;;;;5027892;28;20698;-41
2022/03/05 11:36:46;;;;;;;15.90;11.10;;;11.30;61.80;;;;;;5019252;28;20433;-41
2022/03/05 11:39:19;;;;;;;13.43;10.07;;;11.50;60.20;;;;;;5021797;28;20524;-40
2022/03/05 11:42:02;;;;;;;18.00;9.70;;;11.80;59.40;;;;;;5027810;28;20778;-40
2022/03/05 11:44:48;;;;;;;13.87;9.53;;;12.00;57.20;;;;;;5028261;28;20437;-41
2022/03/05 11:47:30;;;;;;;13.87;9.93;;;11.70;57.90;;;;;;5043335;28;20433;-40
2022/03/05 11:49:59;;;;;;;14.43;10.37;;;12.30;58.00;;;;;;5024533;28;20440;-40
2022/03/05 11:52:40;;;;;;;15.00;10.27;;;12.20;57.60;;;;;;5020540;28;20471;-41
2022/03/05 11:55:16;;;;;;;16.77;10.33;;;12.40;57.30;;;;;;5026211;28;20521;-40
2022/03/05 11:57:51;;;;;;;15.00;9.97;;;12.60;58.50;;;;;;5015458;28;20444;-40
2022/03/05 12:00:27;;;;;;;16.13;9.93;;;12.70;57.60;;;;;;5027009;28;20420;-41
2022/03/05 12:02:55;;;;;;;16.00;10.47;;;12.70;56.00;;;;;;5027702;28;20927;-40
2022/03/05 12:05:41;;;;;;;17.20;11.50;;;12.70;56.20;;;;;;5022123;28;20429;-40
2022/03/05 12:08:08;;;;;;;15.73;10.67;;;12.80;54.60;;;;;;5021916;28;20417;-41
2022/03/05 12:10:38;;;;;;;13.27;10.80;;;12.90;54.70;;;;;;5025135;28;20467;-39
2022/03/05 12:13:05;;;;;;;15.83;11.87;;;12.90;54.50;;;;;;5026494;28;20417;-40
2022/03/05 12:15:38;;;;;;;14.17;10.37;;;12.70;53.80;;;;;;5027379;28;20429;-40
2022/03/05 12:18:05;;;;;;;14.77;11.00;;;12.80;55.00;;;;;;5025965;28;20417;-43
2022/03/05 12:20:37;;;;;;;15.63;10.40;;;12.80;54.50;;;;;;5022406;28;20433;-39
2022/03/05 12:23:05;;;;;;;14.10;10.67;;;12.60;53.60;;;;;;5022881;28;20995;-40
2022/03/05 12:25:34;;;;;;;14.50;10.60;;;12.70;53.60;;;;;;5025796;28;20828;-41
2022/03/05 12:28:00;;;;;;;13.17;10.50;;;12.80;53.10;;;;;;5027539;28;20421;-42
2022/03/05 12:30:35;;;;;;;13.57;10.57;;;12.80;52.80;;;;;;5026876;28;20858;-41
2022/03/05 12:33:08;;;;;;;14.20;10.50;;;12.80;54.70;;;;;;5025904;28;20417;-40
2022/03/05 12:35:35;;;;;;;14.90;11.50;;;12.80;54.40;;;;;;5021522;28;20422;-41